sensor_id;sensor_type;location;lat;lon;timestamp;temperature;humidity
51579;DHT22;47998;53.242;6.386;2023-03-04T00:01:44;5.40;99.90
51579;DHT22;47998;53.242;6.386;2023-03-04T00:04:10;5.40;99.90
51579;DHT22;47998;53.242;6.386;2023-03-04T00:06:36;5.40;99.90
51579;DHT22;47998;53.242;6.386;2023-03-04T00:09:02;5.40;99.90
51579;DHT22;47998;53.242;6.386;2023-03-04T00:11:30;5.30;99.90
51579;DHT22;47998;53.242;6.386;2023-03-04T00:13:56;5.40;99.90
51579;DHT22;47998;53.242;6.386;2023-03-04T00:16:22;5.30;99.90
51579;DHT22;47998;53.242;6.386;2023-03-04T00:18:52;5.30;99.90
51579;DHT22;47998;53.242;6.386;2023-03-04T00:21:18;5.30;99.90
51579;DHT22;47998;53.242;6.386;2023-03-04T00:23:43;5.40;99.90
51579;DHT22;47998;53.242;6.386;2023-03-04T00:26:09;5.40;99.90
51579;DHT22;47998;53.242;6.386;2023-03-04T00:28:35;5.40;99.90
51579;DHT22;47998;53.242;6.386;2023-03-04T00:31:01;5.30;99.90
51579;DHT22;47998;53.242;6.386;2023-03-04T00:33:27;5.40;99.90
51579;DHT22;47998;53.242;6.386;2023-03-04T00:35:52;5.40;99.90
51579;DHT22;47998;53.242;6.386;2023-03-04T00:38:18;5.40;99.90
51579;DHT22;47998;53.242;6.386;2023-03-04T00:40:44;5.50;99.90
51579;DHT22;47998;53.242;6.386;2023-03-04T00:43:10;5.50;99.90
51579;DHT22;47998;53.242;6.386;2023-03-04T00:45:36;5.50;99.90
51579;DHT22;47998;53.242;6.386;2023-03-04T00:48:01;5.50;99.90
51579;DHT22;47998;53.242;6.386;2023-03-04T00:50:27;5.50;99.90
51579;DHT22;47998;53.242;6.386;2023-03-04T00:52:53;5.50;99.90
51579;DHT22;47998;53.242;6.386;2023-03-04T00:55:19;5.40;99.90
51579;DHT22;47998;53.242;6.386;2023-03-04T00:57:44;5.40;99.90
51579;DHT22;47998;53.242;6.386;2023-03-04T01:00:11;5.40;99.90
51579;DHT22;47998;53.242;6.386;2023-03-04T01:02:37;5.40;99.90
51579;DHT22;47998;53.242;6.386;2023-03-04T01:05:02;5.40;99.90
51579;DHT22;47998;53.242;6.386;2023-03-04T01:07:28;5.40;99.90
51579;DHT22;47998;53.242;6.386;2023-03-04T01:09:54;5.40;99.90
51579;DHT22;47998;53.242;6.386;2023-03-04T01:12:20;5.40;99.90
51579;DHT22;47998;53.242;6.386;2023-03-04T01:14:46;5.40;99.90
51579;DHT22;47998;53.242;6.386;2023-03-04T01:17:11;5.40;99.90
51579;DHT22;47998;53.242;6.386;2023-03-04T01:19:37;5.40;99.90
51579;DHT22;47998;53.242;6.386;2023-03-04T01:22:03;5.30;99.90
51579;DHT22;47998;53.242;6.386;2023-03-04T01:24:29;5.40;99.90
51579;DHT22;47998;53.242;6.386;2023-03-04T01:26:55;5.40;99.90
51579;DHT22;47998;53.242;6.386;2023-03-04T01:29:21;5.40;99.90
51579;DHT22;47998;53.242;6.386;2023-03-04T01:31:47;5.30;99.90
51579;DHT22;47998;53.242;6.386;2023-03-04T01:34:13;5.30;99.90
51579;DHT22;47998;53.242;6.386;2023-03-04T01:36:39;5.20;99.90
51579;DHT22;47998;53.242;6.386;2023-03-04T01:39:05;5.30;99.90
51579;DHT22;47998;53.242;6.386;2023-03-04T01:41:31;5.20;99.90
51579;DHT22;47998;53.242;6.386;2023-03-04T01:43:57;5.40;99.90
51579;DHT22;47998;53.242;6.386;2023-03-04T01:46:25;5.20;99.90
51579;DHT22;47998;53.242;6.386;2023-03-04T01:48:51;5.20;99.90
51579;DHT22;47998;53.242;6.386;2023-03-04T01:51:19;5.20;99.90
51579;DHT22;47998;53.242;6.386;2023-03-04T01:53:47;5.10;99.90
51579;DHT22;47998;53.242;6.386;2023-03-04T01:56:19;5.20;99.90
51579;DHT22;47998;53.242;6.386;2023-03-04T01:59:09;5.10;99.90
51579;DHT22;47998;53.242;6.386;2023-03-04T02:01:35;5.20;99.90
51579;DHT22;47998;53.242;6.386;2023-03-04T02:04:02;5.20;99.90
51579;DHT22;47998;53.242;6.386;2023-03-04T02:06:27;5.20;99.90
51579;DHT22;47998;53.242;6.386;2023-03-04T02:08:53;5.20;99.90
51579;DHT22;47998;53.242;6.386;2023-03-04T02:11:19;5.40;99.90
51579;DHT22;47998;53.242;6.386;2023-03-04T02:13:45;5.30;99.90
51579;DHT22;47998;53.242;6.386;2023-03-04T02:16:11;5.40;99.90
51579;DHT22;47998;53.242;6.386;2023-03-04T02:18:36;5.30;99.90
51579;DHT22;47998;53.242;6.386;2023-03-04T02:26:30;5.30;99.90
51579;DHT22;47998;53.242;6.386;2023-03-04T02:29:00;5.30;99.90
51579;DHT22;47998;53.242;6.386;2023-03-04T02:31:38;5.20;99.90
51579;DHT22;47998;53.242;6.386;2023-03-04T02:34:09;5.30;99.90
51579;DHT22;47998;53.242;6.386;2023-03-04T02:36:36;5.30;99.90
51579;DHT22;47998;53.242;6.386;2023-03-04T02:39:21;5.40;99.90
51579;DHT22;47998;53.242;6.386;2023-03-04T02:41:53;5.40;99.90
51579;DHT22;47998;53.242;6.386;2023-03-04T02:44:28;5.40;99.90
51579;DHT22;47998;53.242;6.386;2023-03-04T02:46:55;5.40;99.90
51579;DHT22;47998;53.242;6.386;2023-03-04T02:49:23;5.40;99.90
51579;DHT22;47998;53.242;6.386;2023-03-04T02:52:01;5.40;99.90
51579;DHT22;47998;53.242;6.386;2023-03-04T02:54:28;5.40;99.90
51579;DHT22;47998;53.242;6.386;2023-03-04T02:56:58;5.30;99.90
51579;DHT22;47998;53.242;6.386;2023-03-04T02:59:24;5.40;99.90
51579;DHT22;47998;53.242;6.386;2023-03-04T03:01:50;5.40;99.90
51579;DHT22;47998;53.242;6.386;2023-03-04T03:04:16;5.40;99.90
51579;DHT22;47998;53.242;6.386;2023-03-04T03:06:42;5.40;99.90
51579;DHT22;47998;53.242;6.386;2023-03-04T03:09:08;5.50;99.90
51579;DHT22;47998;53.242;6.386;2023-03-04T03:11:34;5.50;99.90
51579;DHT22;47998;53.242;6.386;2023-03-04T03:14:00;5.50;99.90
51579;DHT22;47998;53.242;6.386;2023-03-04T03:16:26;5.40;99.90
51579;DHT22;47998;53.242;6.386;2023-03-04T03:18:52;5.40;99.90
51579;DHT22;47998;53.242;6.386;2023-03-04T03:21:18;5.50;99.90
51579;DHT22;47998;53.242;6.386;2023-03-04T03:23:44;5.40;99.90
51579;DHT22;47998;53.242;6.386;2023-03-04T03:26:10;5.40;99.90
51579;DHT22;47998;53.242;6.386;2023-03-04T03:28:36;5.40;99.90
51579;DHT22;47998;53.242;6.386;2023-03-04T03:31:01;5.40;99.90
51579;DHT22;47998;53.242;6.386;2023-03-04T03:33:27;5.40;99.90
51579;DHT22;47998;53.242;6.386;2023-03-04T03:35:53;5.40;99.90
51579;DHT22;47998;53.242;6.386;2023-03-04T03:38:19;5.30;99.90
51579;DHT22;47998;53.242;6.386;2023-03-04T03:40:45;5.30;99.90
51579;DHT22;47998;53.242;6.386;2023-03-04T03:43:11;5.30;99.90
51579;DHT22;47998;53.242;6.386;2023-03-04T03:45:37;5.30;99.90
51579;DHT22;47998;53.242;6.386;2023-03-04T03:48:02;5.30;99.90
51579;DHT22;47998;53.242;6.386;2023-03-04T03:50:29;5.20;99.90
51579;DHT22;47998;53.242;6.386;2023-03-04T03:52:55;5.30;99.90
51579;DHT22;47998;53.242;6.386;2023-03-04T03:55:21;5.30;99.90
51579;DHT22;47998;53.242;6.386;2023-03-04T03:57:47;5.20;99.90
51579;DHT22;47998;53.242;6.386;2023-03-04T04:00:13;5.20;99.90
51579;DHT22;47998;53.242;6.386;2023-03-04T04:02:41;5.20;99.90
51579;DHT22;47998;53.242;6.386;2023-03-04T04:05:08;5.20;99.90
51579;DHT22;47998;53.242;6.386;2023-03-04T04:07:34;5.30;99.90
51579;DHT22;47998;53.242;6.386;2023-03-04T04:10:00;5.30;99.90
51579;DHT22;47998;53.242;6.386;2023-03-04T04:12:26;5.30;99.90
51579;DHT22;47998;53.242;6.386;2023-03-04T04:14:52;5.20;99.90
51579;DHT22;47998;53.242;6.386;2023-03-04T04:17:17;5.20;99.90
51579;DHT22;47998;53.242;6.386;2023-03-04T04:19:43;5.20;99.90
51579;DHT22;47998;53.242;6.386;2023-03-04T04:22:18;5.20;99.90
51579;DHT22;47998;53.242;6.386;2023-03-04T04:24:45;5.20;99.90
51579;DHT22;47998;53.242;6.386;2023-03-04T04:27:11;5.20;99.90
51579;DHT22;47998;53.242;6.386;2023-03-04T04:29:37;5.20;99.90
51579;DHT22;47998;53.242;6.386;2023-03-04T04:32:03;5.20;99.90
51579;DHT22;47998;53.242;6.386;2023-03-04T04:34:29;5.30;99.90
51579;DHT22;47998;53.242;6.386;2023-03-04T04:36:55;5.20;99.90
51579;DHT22;47998;53.242;6.386;2023-03-04T04:39:21;5.30;99.90
51579;DHT22;47998;53.242;6.386;2023-03-04T04:41:47;5.30;99.90
51579;DHT22;47998;53.242;6.386;2023-03-04T04:44:13;5.30;99.90
51579;DHT22;47998;53.242;6.386;2023-03-04T04:46:40;5.30;99.90
51579;DHT22;47998;53.242;6.386;2023-03-04T04:49:07;5.40;99.90
51579;DHT22;47998;53.242;6.386;2023-03-04T04:51:35;5.50;99.90
51579;DHT22;47998;53.242;6.386;2023-03-04T04:54:01;5.50;99.90
51579;DHT22;47998;53.242;6.386;2023-03-04T04:56:28;5.50;99.90
51579;DHT22;47998;53.242;6.386;2023-03-04T04:58:56;5.40;99.90
51579;DHT22;47998;53.242;6.386;2023-03-04T05:01:23;5.50;99.90
51579;DHT22;47998;53.242;6.386;2023-03-04T05:03:49;5.40;99.90
51579;DHT22;47998;53.242;6.386;2023-03-04T05:06:18;5.40;99.90
51579;DHT22;47998;53.242;6.386;2023-03-04T05:08:45;5.50;99.90
51579;DHT22;47998;53.242;6.386;2023-03-04T05:11:10;5.40;99.90
51579;DHT22;47998;53.242;6.386;2023-03-04T05:13:37;5.40;99.90
51579;DHT22;47998;53.242;6.386;2023-03-04T05:16:03;5.40;99.90
51579;DHT22;47998;53.242;6.386;2023-03-04T05:18:29;5.40;99.90
51579;DHT22;47998;53.242;6.386;2023-03-04T05:20:57;5.50;99.90
51579;DHT22;47998;53.242;6.386;2023-03-04T05:23:24;5.50;99.90
51579;DHT22;47998;53.242;6.386;2023-03-04T05:25:51;5.50;99.90
51579;DHT22;47998;53.242;6.386;2023-03-04T05:28:17;5.50;99.90
51579;DHT22;47998;53.242;6.386;2023-03-04T05:30:44;5.50;99.90
51579;DHT22;47998;53.242;6.386;2023-03-04T05:33:11;5.50;99.90
51579;DHT22;47998;53.242;6.386;2023-03-04T05:35:39;5.60;99.90
51579;DHT22;47998;53.242;6.386;2023-03-04T05:38:07;5.50;99.90
51579;DHT22;47998;53.242;6.386;2023-03-04T05:40:33;5.50;99.90
51579;DHT22;47998;53.242;6.386;2023-03-04T05:42:59;5.40;99.90
51579;DHT22;47998;53.242;6.386;2023-03-04T05:45:26;5.30;99.90
51579;DHT22;47998;53.242;6.386;2023-03-04T05:47:52;5.40;99.90
51579;DHT22;47998;53.242;6.386;2023-03-04T05:50:19;5.40;99.90
51579;DHT22;47998;53.242;6.386;2023-03-04T05:52:45;5.40;99.90
51579;DHT22;47998;53.242;6.386;2023-03-04T05:55:11;5.40;99.90
51579;DHT22;47998;53.242;6.386;2023-03-04T05:57:37;5.40;99.90
51579;DHT22;47998;53.242;6.386;2023-03-04T06:00:04;5.40;99.90
51579;DHT22;47998;53.242;6.386;2023-03-04T06:02:32;5.40;99.90
51579;DHT22;47998;53.242;6.386;2023-03-04T06:04:57;5.30;99.90
51579;DHT22;47998;53.242;6.386;2023-03-04T06:07:23;5.30;99.90
51579;DHT22;47998;53.242;6.386;2023-03-04T06:09:49;5.20;99.90
51579;DHT22;47998;53.242;6.386;2023-03-04T06:12:15;5.30;99.90
51579;DHT22;47998;53.242;6.386;2023-03-04T06:14:40;5.30;99.90
51579;DHT22;47998;53.242;6.386;2023-03-04T06:17:06;5.30;99.90
51579;DHT22;47998;53.242;6.386;2023-03-04T06:19:32;5.30;99.90
51579;DHT22;47998;53.242;6.386;2023-03-04T06:21:58;5.30;99.90
51579;DHT22;47998;53.242;6.386;2023-03-04T06:24:24;5.30;99.90
51579;DHT22;47998;53.242;6.386;2023-03-04T06:26:50;5.30;99.90
51579;DHT22;47998;53.242;6.386;2023-03-04T06:29:16;5.30;99.90
51579;DHT22;47998;53.242;6.386;2023-03-04T06:31:42;5.20;99.90
51579;DHT22;47998;53.242;6.386;2023-03-04T06:34:08;5.20;99.90
51579;DHT22;47998;53.242;6.386;2023-03-04T06:36:34;5.30;99.90
51579;DHT22;47998;53.242;6.386;2023-03-04T06:39:09;5.30;99.90
51579;DHT22;47998;53.242;6.386;2023-03-04T06:41:35;5.40;99.90
51579;DHT22;47998;53.242;6.386;2023-03-04T06:44:00;5.40;99.90
51579;DHT22;47998;53.242;6.386;2023-03-04T06:46:26;5.40;99.90
51579;DHT22;47998;53.242;6.386;2023-03-04T06:48:52;5.30;99.90
51579;DHT22;47998;53.242;6.386;2023-03-04T06:51:18;5.30;99.90
51579;DHT22;47998;53.242;6.386;2023-03-04T06:53:44;5.40;99.90
51579;DHT22;47998;53.242;6.386;2023-03-04T06:56:11;5.40;99.90
51579;DHT22;47998;53.242;6.386;2023-03-04T06:58:38;5.50;99.90
51579;DHT22;47998;53.242;6.386;2023-03-04T07:01:18;5.70;99.90
51579;DHT22;47998;53.242;6.386;2023-03-04T07:03:45;5.60;99.90
51579;DHT22;47998;53.242;6.386;2023-03-04T07:06:12;5.50;99.90
51579;DHT22;47998;53.242;6.386;2023-03-04T07:08:39;5.40;99.90
51579;DHT22;47998;53.242;6.386;2023-03-04T07:11:05;5.30;99.90
51579;DHT22;47998;53.242;6.386;2023-03-04T07:13:31;5.30;99.90
51579;DHT22;47998;53.242;6.386;2023-03-04T07:16:00;5.50;99.90
51579;DHT22;47998;53.242;6.386;2023-03-04T07:18:26;5.40;99.90
51579;DHT22;47998;53.242;6.386;2023-03-04T07:20:52;5.40;99.90
51579;DHT22;47998;53.242;6.386;2023-03-04T07:23:18;5.30;99.90
51579;DHT22;47998;53.242;6.386;2023-03-04T07:25:45;5.50;99.90
51579;DHT22;47998;53.242;6.386;2023-03-04T07:28:11;5.40;99.90
51579;DHT22;47998;53.242;6.386;2023-03-04T07:30:37;5.40;99.90
51579;DHT22;47998;53.242;6.386;2023-03-04T07:33:02;5.50;99.90
51579;DHT22;47998;53.242;6.386;2023-03-04T07:35:28;5.60;99.90
51579;DHT22;47998;53.242;6.386;2023-03-04T07:37:54;5.70;99.90
51579;DHT22;47998;53.242;6.386;2023-03-04T07:40:20;5.70;99.90
51579;DHT22;47998;53.242;6.386;2023-03-04T07:42:53;5.70;99.90
51579;DHT22;47998;53.242;6.386;2023-03-04T07:45:20;5.80;99.90
51579;DHT22;47998;53.242;6.386;2023-03-04T07:47:46;6.00;99.90
51579;DHT22;47998;53.242;6.386;2023-03-04T07:50:12;6.10;99.90
51579;DHT22;47998;53.242;6.386;2023-03-04T07:52:39;6.10;99.90
51579;DHT22;47998;53.242;6.386;2023-03-04T07:55:06;6.10;99.90
51579;DHT22;47998;53.242;6.386;2023-03-04T07:57:32;6.10;99.90
51579;DHT22;47998;53.242;6.386;2023-03-04T07:59:57;6.00;99.90
51579;DHT22;47998;53.242;6.386;2023-03-04T08:02:23;6.00;99.90
51579;DHT22;47998;53.242;6.386;2023-03-04T08:04:49;6.00;99.90
51579;DHT22;47998;53.242;6.386;2023-03-04T08:07:15;6.00;99.90
51579;DHT22;47998;53.242;6.386;2023-03-04T08:09:41;6.00;99.90
51579;DHT22;47998;53.242;6.386;2023-03-04T08:12:08;6.00;99.90
51579;DHT22;47998;53.242;6.386;2023-03-04T08:14:33;6.00;99.90
51579;DHT22;47998;53.242;6.386;2023-03-04T08:16:59;6.00;99.90
51579;DHT22;47998;53.242;6.386;2023-03-04T08:19:25;6.00;99.90
51579;DHT22;47998;53.242;6.386;2023-03-04T08:21:51;6.00;99.90
51579;DHT22;47998;53.242;6.386;2023-03-04T08:24:17;6.00;99.90
51579;DHT22;47998;53.242;6.386;2023-03-04T08:26:46;5.80;99.90
51579;DHT22;47998;53.242;6.386;2023-03-04T08:29:14;5.80;99.90
51579;DHT22;47998;53.242;6.386;2023-03-04T08:31:40;5.90;99.90
51579;DHT22;47998;53.242;6.386;2023-03-04T08:34:07;5.90;99.90
51579;DHT22;47998;53.242;6.386;2023-03-04T08:36:34;6.00;99.90
51579;DHT22;47998;53.242;6.386;2023-03-04T08:39:01;6.10;99.90
51579;DHT22;47998;53.242;6.386;2023-03-04T08:41:27;6.20;99.90
51579;DHT22;47998;53.242;6.386;2023-03-04T08:43:53;6.10;99.90
51579;DHT22;47998;53.242;6.386;2023-03-04T08:46:19;6.10;99.90
51579;DHT22;47998;53.242;6.386;2023-03-04T08:48:45;6.20;99.90
51579;DHT22;47998;53.242;6.386;2023-03-04T08:51:13;6.20;99.90
51579;DHT22;47998;53.242;6.386;2023-03-04T08:53:39;6.20;99.90
51579;DHT22;47998;53.242;6.386;2023-03-04T08:56:06;6.30;99.90
51579;DHT22;47998;53.242;6.386;2023-03-04T08:58:33;6.30;99.90
51579;DHT22;47998;53.242;6.386;2023-03-04T09:01:00;6.40;99.90
51579;DHT22;47998;53.242;6.386;2023-03-04T09:03:26;6.50;99.90
51579;DHT22;47998;53.242;6.386;2023-03-04T09:05:52;6.40;99.90
51579;DHT22;47998;53.242;6.386;2023-03-04T09:08:18;6.50;99.90
51579;DHT22;47998;53.242;6.386;2023-03-04T09:10:45;6.60;99.90
51579;DHT22;47998;53.242;6.386;2023-03-04T09:13:11;6.70;99.90
51579;DHT22;47998;53.242;6.386;2023-03-04T09:15:44;6.70;99.90
51579;DHT22;47998;53.242;6.386;2023-03-04T09:18:10;6.80;99.90
51579;DHT22;47998;53.242;6.386;2023-03-04T09:20:35;6.80;99.90
51579;DHT22;47998;53.242;6.386;2023-03-04T09:23:01;6.80;99.90
51579;DHT22;47998;53.242;6.386;2023-03-04T09:25:27;6.80;99.90
51579;DHT22;47998;53.242;6.386;2023-03-04T09:27:53;6.90;99.90
51579;DHT22;47998;53.242;6.386;2023-03-04T09:30:19;6.90;99.90
51579;DHT22;47998;53.242;6.386;2023-03-04T09:32:44;6.90;99.90
51579;DHT22;47998;53.242;6.386;2023-03-04T09:35:10;6.80;99.90
51579;DHT22;47998;53.242;6.386;2023-03-04T09:37:36;6.80;99.90
51579;DHT22;47998;53.242;6.386;2023-03-04T09:40:03;6.80;99.90
51579;DHT22;47998;53.242;6.386;2023-03-04T09:42:41;6.80;99.90
51579;DHT22;47998;53.242;6.386;2023-03-04T09:45:12;6.70;99.90
51579;DHT22;47998;53.242;6.386;2023-03-04T09:47:41;6.50;99.90
51579;DHT22;47998;53.242;6.386;2023-03-04T09:50:09;6.60;99.90
51579;DHT22;47998;53.242;6.386;2023-03-04T09:52:49;6.60;99.90
51579;DHT22;47998;53.242;6.386;2023-03-04T09:57:52;6.80;99.90
51579;DHT22;47998;53.242;6.386;2023-03-04T10:00:32;6.80;99.90
51579;DHT22;47998;53.242;6.386;2023-03-04T10:05:47;7.10;99.90
51579;DHT22;47998;53.242;6.386;2023-03-04T10:16:51;7.10;99.90
51579;DHT22;47998;53.242;6.386;2023-03-04T10:19:40;7.10;99.90
51579;DHT22;47998;53.242;6.386;2023-03-04T10:22:40;6.90;99.90
51579;DHT22;47998;53.242;6.386;2023-03-04T10:25:30;7.00;99.90
51579;DHT22;47998;53.242;6.386;2023-03-04T10:28:11;7.10;99.90
51579;DHT22;47998;53.242;6.386;2023-03-04T10:33:32;7.30;99.90
51579;DHT22;47998;53.242;6.386;2023-03-04T10:41:35;7.60;99.90
51579;DHT22;47998;53.242;6.386;2023-03-04T10:44:04;7.80;99.90
51579;DHT22;47998;53.242;6.386;2023-03-04T10:46:40;7.70;99.90
51579;DHT22;47998;53.242;6.386;2023-03-04T10:49:09;7.50;99.90
51579;DHT22;47998;53.242;6.386;2023-03-04T10:59:38;7.30;99.90
51579;DHT22;47998;53.242;6.386;2023-03-04T11:05:05;7.50;99.90
51579;DHT22;47998;53.242;6.386;2023-03-04T11:07:38;7.70;99.90
51579;DHT22;47998;53.242;6.386;2023-03-04T11:12:34;7.80;99.90
51579;DHT22;47998;53.242;6.386;2023-03-04T11:15:00;7.80;99.90
51579;DHT22;47998;53.242;6.386;2023-03-04T11:17:38;8.00;99.90
51579;DHT22;47998;53.242;6.386;2023-03-04T11:20:34;8.20;99.90
51579;DHT22;47998;53.242;6.386;2023-03-04T11:25:59;7.70;99.90
51579;DHT22;47998;53.242;6.386;2023-03-04T11:28:55;7.60;99.90
51579;DHT22;47998;53.242;6.386;2023-03-04T11:31:30;8.30;99.90
51579;DHT22;47998;53.242;6.386;2023-03-04T11:34:27;8.80;99.90
51579;DHT22;47998;53.242;6.386;2023-03-04T11:40:11;8.40;99.90
51579;DHT22;47998;53.242;6.386;2023-03-04T11:42:50;7.80;99.90
51579;DHT22;47998;53.242;6.386;2023-03-04T11:45:27;7.60;99.90
51579;DHT22;47998;53.242;6.386;2023-03-04T11:50:47;7.40;99.90
51579;DHT22;47998;53.242;6.386;2023-03-04T11:53:41;7.40;99.90
51579;DHT22;47998;53.242;6.386;2023-03-04T11:56:15;7.40;99.90
51579;DHT22;47998;53.242;6.386;2023-03-04T11:59:16;7.60;99.90
51579;DHT22;47998;53.242;6.386;2023-03-04T12:07:42;8.00;99.90
51579;DHT22;47998;53.242;6.386;2023-03-04T12:10:29;7.70;99.90
51579;DHT22;47998;53.242;6.386;2023-03-04T12:22:25;7.90;99.90
51579;DHT22;47998;53.242;6.386;2023-03-04T12:25:33;7.30;99.90
51579;DHT22;47998;53.242;6.386;2023-03-04T12:28:22;6.90;99.90
51579;DHT22;47998;53.242;6.386;2023-03-04T12:30:53;6.60;99.90
51579;DHT22;47998;53.242;6.386;2023-03-04T12:36:15;7.30;99.90
51579;DHT22;47998;53.242;6.386;2023-03-04T12:41:33;8.30;99.90
51579;DHT22;47998;53.242;6.386;2023-03-04T12:44:15;8.60;99.90
51579;DHT22;47998;53.242;6.386;2023-03-04T12:55:49;9.30;99.90
51579;DHT22;47998;53.242;6.386;2023-03-04T12:58:22;9.00;99.90
51579;DHT22;47998;53.242;6.386;2023-03-04T13:01:06;8.40;99.90
51579;DHT22;47998;53.242;6.386;2023-03-04T13:06:48;8.00;99.90
51579;DHT22;47998;53.242;6.386;2023-03-04T13:12:45;7.50;99.90
51579;DHT22;47998;53.242;6.386;2023-03-04T13:17:43;6.60;99.90
51579;DHT22;47998;53.242;6.386;2023-03-04T13:20:21;6.40;99.90
51579;DHT22;47998;53.242;6.386;2023-03-04T13:25:35;7.40;99.90
51579;DHT22;47998;53.242;6.386;2023-03-04T13:28:21;7.90;99.90
51579;DHT22;47998;53.242;6.386;2023-03-04T13:43:27;8.20;99.90
51579;DHT22;47998;53.242;6.386;2023-03-04T13:46:43;8.10;99.90
51579;DHT22;47998;53.242;6.386;2023-03-04T13:49:20;8.20;99.90
51579;DHT22;47998;53.242;6.386;2023-03-04T13:51:49;8.00;99.90
51579;DHT22;47998;53.242;6.386;2023-03-04T13:54:35;7.70;99.90
51579;DHT22;47998;53.242;6.386;2023-03-04T13:57:17;7.30;99.90
51579;DHT22;47998;53.242;6.386;2023-03-04T13:59:50;6.80;99.90
51579;DHT22;47998;53.242;6.386;2023-03-04T14:02:23;6.60;99.90
51579;DHT22;47998;53.242;6.386;2023-03-04T14:07:32;6.90;99.90
51579;DHT22;47998;53.242;6.386;2023-03-04T14:12:55;8.00;99.90
51579;DHT22;47998;53.242;6.386;2023-03-04T14:15:27;7.80;99.90
51579;DHT22;47998;53.242;6.386;2023-03-04T14:17:56;7.30;99.90
51579;DHT22;47998;53.242;6.386;2023-03-04T14:20:29;6.90;99.90
51579;DHT22;47998;53.242;6.386;2023-03-04T14:22:56;6.70;99.90
51579;DHT22;47998;53.242;6.386;2023-03-04T14:25:26;6.60;99.90
51579;DHT22;47998;53.242;6.386;2023-03-04T14:28:11;7.00;99.90
51579;DHT22;47998;53.242;6.386;2023-03-04T14:30:39;6.90;99.90
51579;DHT22;47998;53.242;6.386;2023-03-04T14:33:07;6.90;99.90
51579;DHT22;47998;53.242;6.386;2023-03-04T14:35:33;6.70;99.90
51579;DHT22;47998;53.242;6.386;2023-03-04T14:38:06;6.60;99.90
51579;DHT22;47998;53.242;6.386;2023-03-04T14:40:42;6.60;99.90
51579;DHT22;47998;53.242;6.386;2023-03-04T14:43:16;6.60;99.90
51579;DHT22;47998;53.242;6.386;2023-03-04T14:45:42;6.60;99.90
51579;DHT22;47998;53.242;6.386;2023-03-04T14:48:19;6.50;99.90
51579;DHT22;47998;53.242;6.386;2023-03-04T14:50:52;6.40;99.90
51579;DHT22;47998;53.242;6.386;2023-03-04T14:53:20;6.40;99.90
51579;DHT22;47998;53.242;6.386;2023-03-04T14:56:05;6.50;99.90
51579;DHT22;47998;53.242;6.386;2023-03-04T14:58:37;6.70;99.90
51579;DHT22;47998;53.242;6.386;2023-03-04T15:01:16;7.00;99.90
51579;DHT22;47998;53.242;6.386;2023-03-04T15:04:07;7.10;99.90
51579;DHT22;47998;53.242;6.386;2023-03-04T15:06:37;7.30;99.90
51579;DHT22;47998;53.242;6.386;2023-03-04T15:09:06;7.20;99.90
51579;DHT22;47998;53.242;6.386;2023-03-04T15:11:46;7.10;99.90
51579;DHT22;47998;53.242;6.386;2023-03-04T15:23:02;6.30;99.90
51579;DHT22;47998;53.242;6.386;2023-03-04T15:25:28;6.20;99.90
51579;DHT22;47998;53.242;6.386;2023-03-04T15:27:55;6.20;99.90
51579;DHT22;47998;53.242;6.386;2023-03-04T15:30:32;6.20;99.90
51579;DHT22;47998;53.242;6.386;2023-03-04T15:33:00;6.20;99.90
51579;DHT22;47998;53.242;6.386;2023-03-04T15:35:31;6.20;99.90
51579;DHT22;47998;53.242;6.386;2023-03-04T15:37:58;6.10;99.90
51579;DHT22;47998;53.242;6.386;2023-03-04T15:40:36;6.10;99.90
51579;DHT22;47998;53.242;6.386;2023-03-04T15:43:04;5.90;99.90
51579;DHT22;47998;53.242;6.386;2023-03-04T15:45:33;5.80;99.90
51579;DHT22;47998;53.242;6.386;2023-03-04T15:48:01;5.80;99.90
51579;DHT22;47998;53.242;6.386;2023-03-04T15:50:35;5.50;99.90
51579;DHT22;47998;53.242;6.386;2023-03-04T15:53:02;5.40;99.90
51579;DHT22;47998;53.242;6.386;2023-03-04T15:55:30;5.20;99.90
51579;DHT22;47998;53.242;6.386;2023-03-04T15:57:58;5.10;99.90
51579;DHT22;47998;53.242;6.386;2023-03-04T16:00:28;5.10;99.90
51579;DHT22;47998;53.242;6.386;2023-03-04T16:02:55;5.00;99.90
51579;DHT22;47998;53.242;6.386;2023-03-04T16:05:21;5.00;99.90
51579;DHT22;47998;53.242;6.386;2023-03-04T16:07:49;5.20;99.90
51579;DHT22;47998;53.242;6.386;2023-03-04T16:10:19;5.20;99.90
51579;DHT22;47998;53.242;6.386;2023-03-04T16:12:46;5.00;99.90
51579;DHT22;47998;53.242;6.386;2023-03-04T16:15:17;4.80;99.90
51579;DHT22;47998;53.242;6.386;2023-03-04T16:17:47;4.70;99.90
51579;DHT22;47998;53.242;6.386;2023-03-04T16:20:15;4.50;99.90
51579;DHT22;47998;53.242;6.386;2023-03-04T16:22:43;4.50;99.90
51579;DHT22;47998;53.242;6.386;2023-03-04T16:25:11;4.50;99.90
51579;DHT22;47998;53.242;6.386;2023-03-04T16:27:42;4.50;99.90
51579;DHT22;47998;53.242;6.386;2023-03-04T16:30:23;4.40;99.90
51579;DHT22;47998;53.242;6.386;2023-03-04T16:32:49;4.40;99.90
51579;DHT22;47998;53.242;6.386;2023-03-04T16:35:16;4.50;99.90
51579;DHT22;47998;53.242;6.386;2023-03-04T16:37:43;4.60;99.90
51579;DHT22;47998;53.242;6.386;2023-03-04T16:40:18;4.50;99.90
51579;DHT22;47998;53.242;6.386;2023-03-04T16:42:44;4.40;99.90
51579;DHT22;47998;53.242;6.386;2023-03-04T16:45:19;4.20;99.90
51579;DHT22;47998;53.242;6.386;2023-03-04T16:47:45;4.20;99.90
51579;DHT22;47998;53.242;6.386;2023-03-04T16:50:15;4.20;99.90
51579;DHT22;47998;53.242;6.386;2023-03-04T16:52:46;4.20;99.90
51579;DHT22;47998;53.242;6.386;2023-03-04T16:55:28;4.20;99.90
51579;DHT22;47998;53.242;6.386;2023-03-04T16:57:57;4.10;99.90
51579;DHT22;47998;53.242;6.386;2023-03-04T17:00:26;4.00;99.90
51579;DHT22;47998;53.242;6.386;2023-03-04T17:02:55;4.00;99.90
51579;DHT22;47998;53.242;6.386;2023-03-04T17:05:24;4.00;99.90
51579;DHT22;47998;53.242;6.386;2023-03-04T17:07:50;4.00;99.90
51579;DHT22;47998;53.242;6.386;2023-03-04T17:10:16;3.90;99.90
51579;DHT22;47998;53.242;6.386;2023-03-04T17:12:42;3.80;99.90
51579;DHT22;47998;53.242;6.386;2023-03-04T17:15:13;3.80;99.90
51579;DHT22;47998;53.242;6.386;2023-03-04T17:17:40;3.90;99.90
51579;DHT22;47998;53.242;6.386;2023-03-04T17:20:09;3.90;99.90
51579;DHT22;47998;53.242;6.386;2023-03-04T17:22:35;3.90;99.90
51579;DHT22;47998;53.242;6.386;2023-03-04T17:25:02;3.90;99.90
51579;DHT22;47998;53.242;6.386;2023-03-04T17:27:28;3.90;99.90
51579;DHT22;47998;53.242;6.386;2023-03-04T17:29:54;3.80;99.90
51579;DHT22;47998;53.242;6.386;2023-03-04T17:32:20;3.80;99.90
51579;DHT22;47998;53.242;6.386;2023-03-04T17:34:46;3.80;99.90
51579;DHT22;47998;53.242;6.386;2023-03-04T17:37:12;3.80;99.90
51579;DHT22;47998;53.242;6.386;2023-03-04T17:39:38;3.80;99.90
51579;DHT22;47998;53.242;6.386;2023-03-04T17:42:05;3.80;99.90
51579;DHT22;47998;53.242;6.386;2023-03-04T17:44:30;3.80;99.90
51579;DHT22;47998;53.242;6.386;2023-03-04T17:46:56;3.80;99.90
51579;DHT22;47998;53.242;6.386;2023-03-04T17:49:23;3.80;99.90
51579;DHT22;47998;53.242;6.386;2023-03-04T17:51:48;3.80;99.90
51579;DHT22;47998;53.242;6.386;2023-03-04T17:54:14;3.80;99.90
51579;DHT22;47998;53.242;6.386;2023-03-04T17:56:40;3.80;99.90